Main page
METAR-TAF:

METAR-TAF

Airports :

Capitán de Corbeta Carlos A. Curbelo International Airport

Punta del Este, Uruguay

latitude: 34-52S, longitude: 055-06W, elevation: 30 m

Current weather observation

The report was made 54 minutes ago, at 05:00 UTC
Wind 14 kt from the Northeast
Temperature 21°C
Humidity 73%
Pressure 1006 hPa
Visibility 10 km or more
no clouds below 1500 m and no cumulonimbus

METAR: SULS 080500Z 04014KT CAVOK 21/16 Q1006

Time: 02:54 (05:54 UTC)

Forecast

The report was made 6 hours and 24 minutes ago, at 23:30 UTC
Forecast valid from 08 at 00 UTC to 08 at 24 UTC
Wind 15 kt from the North
Visibility 10 km or more
no clouds below 1500 m and no cumulonimbus
Probability 40% :
Temporary
from 08 at 00 UTC to 08 at 06 UTC
Wind 17 kt from the North/Northeast with gusts up to 27 kt
Becoming
from 08 at 15 UTC to 08 at 17 UTC
Wind 12 kt from the South/Southwest

TAF: SULS 072330Z 0800/0824 01015KT CAVOK TX34/0818Z TN20/0809Z PROB40 TEMPO 0800/0806 02017G27KT BECMG 0815/0817 20012KT

Weather observations and forecasts of more than 4000 airports (METAR and TAF reports).

The available stations are represented by yellow and red dots on the map.

Hover mouse over dot to see the name of the station.

Then click to see weather observations and forecasts.

To change the map : click on the green buttons with a black cross to zoom in, on the green button with a dash to zoom out, or on the green arrows for adjacent maps.


METAR-TAF: